Bilston, United Kingdom
Current Conditions -  °F | °C
As of 12:50 AM on Monday 24 Nov 2014 (Local Time) from EGBB Reporting Station
Clear Clear  
Wind Chill: 33°   Ceiling: Unl
Heat Index: 37°   Visibility: 6mi
Dew Point: 34°   Wind: 6mph
Humidity: 87%   Direction: 260°W
Pressure: 30.18"   Gusts: NA
Location:  52.56°N, 2.07°W
Report Text: EGBB 240050Z 26005KT CAVOK 03/01 Q1022
Loading
Personal Weather Stations






























Interactive Weather Map New forecast layout! Learn more

10-Day Weather Forecast

Advertisements
Track Severe Weather on mobile